Alma, IL (62807)

03:51 PM CDT del 24 Settembre 2016 (GMT -0500)
Alma Park | | Change Station

Alt. 640 ft 38.72 °N, 88.91 °W | Updated 3 minutes ago

Scattered Clouds
Nubi sparse
95.4 °F
Sembra 101 °F
N
1.6
Vento Variabile Vento da SSO

Oggi
Massima -- | Minima -- °F
--% Possibilità di precip.
Ieri
Massima -- | Minima -- °F
Precip. -- in
Pressione 30.07 in
Visibilità 10.0 miglia
Nuvole Nubi sparse 5000 ft
Indice di calore 101 °F
Punto di rugiada 69 °F
Umidità 43%
Piovosità 0.00 in
Spessore del manto nevoso Non disponibile.
6:45 AM 6:48 PM
Luna calante, 34% visible
METAR KSLO 242035Z AUTO 14003KT 10SM SCT050 32/18 A3007 RMK AO2 T03190179
Pressione 30.07 in
Visibilità 10.0 miglia
Nuvole Nubi sparse 5000 ft
Indice di calore 101 °F
Punto di rugiada 69 °F
Umidità 43%
Piovosità 0.00 in
Spessore del manto nevoso Non disponibile.
6:45 AM 6:48 PM
Luna calante, 34% visible
METAR KSLO 242035Z AUTO 14003KT 10SM SCT050 32/18 A3007 RMK AO2 T03190179

10-Day Weather Forecast

Almanac

Astronomia

Sep. 24, 2016 Alba Tramonto
Ora attuale
Crepuscolo civile
Crepuscolo nautico
Crepuscolo astronomico
Luna
Estensione della luce visibile
Lunghezza del giorno
Tomorrow will be .
, % of the Moon is Illuminated

Gli estremi di oggi

State Highs State Lows

Community

WunderPhotos

Upload Photos

1,941,423 foto caricate!

WunderBlog® & News

Nearby

Qualità dell'aria

  Qualità dell'aria Indice AQ Inquinante
Not available.

Profondità neve

Stazione Profondità Altitudine

Attività sismica

Città  Distanza Mag. Data & Ora
Minimo Magnitudo Mostrato è 2.5.

Temperature delle acque costiere

Località Temperatura

Stations

Stazioni meteo nelle vicinanze

Ubicazione della stazione Temp. Raffreddamento del vento Punto di rugiada Umidità Vento Precip. Alt. Aggiornato Tipo
                   

Watches & Warnings

There are currently no watches in effect.